createdAt,value
2018-05-23T00:01:11.159Z,15.70
2018-05-23T00:03:38.687Z,15.60
2018-05-23T00:06:06.994Z,15.60
2018-05-23T00:08:34.557Z,15.60
2018-05-23T00:11:02.228Z,15.70
2018-05-23T00:13:29.765Z,15.60
2018-05-23T00:15:57.336Z,15.60
2018-05-23T00:18:24.891Z,15.60
2018-05-23T00:20:52.457Z,15.60
2018-05-23T00:23:20.103Z,15.60
2018-05-23T00:25:47.625Z,15.70
2018-05-23T00:28:15.910Z,15.90
2018-05-23T00:30:44.339Z,15.90
2018-05-23T00:33:11.871Z,15.80
2018-05-23T00:35:39.549Z,15.80
2018-05-23T00:38:07.128Z,15.70
2018-05-23T00:40:34.655Z,15.70
2018-05-23T00:43:02.191Z,15.60
2018-05-23T00:45:29.775Z,15.60
2018-05-23T00:47:57.293Z,15.60
2018-05-23T00:50:25.576Z,15.50
2018-05-23T00:52:53.896Z,15.50
2018-05-23T00:55:33.101Z,15.50
2018-05-23T00:58:00.656Z,15.50
2018-05-23T01:00:28.175Z,15.50
2018-05-23T01:02:55.705Z,15.50
2018-05-23T01:05:23.255Z,15.50
2018-05-23T01:07:50.793Z,15.50
2018-05-23T01:10:21.665Z,15.50
2018-05-23T01:12:49.211Z,15.50
2018-05-23T01:15:16.751Z,15.50
2018-05-23T01:17:44.280Z,15.40
2018-05-23T01:20:12.592Z,15.40
2018-05-23T01:22:40.103Z,15.30
2018-05-23T01:25:07.642Z,15.40
2018-05-23T01:27:35.265Z,15.40
2018-05-23T01:30:02.782Z,15.40
2018-05-23T01:32:30.295Z,15.40
2018-05-23T01:34:57.862Z,15.40
2018-05-23T01:37:25.825Z,15.40
2018-05-23T01:39:53.382Z,15.40
2018-05-23T01:42:21.031Z,15.40
2018-05-23T01:44:48.545Z,15.40
2018-05-23T01:47:16.834Z,15.40
2018-05-23T01:49:45.176Z,15.40
2018-05-23T01:52:12.811Z,15.40
2018-05-23T01:54:40.353Z,15.40
2018-05-23T01:57:07.910Z,15.40
2018-05-23T01:59:35.475Z,15.50
2018-05-23T02:02:03.006Z,15.40
2018-05-23T02:04:31.330Z,15.40
2018-05-23T02:06:58.873Z,15.30
2018-05-23T02:09:26.402Z,15.30
2018-05-23T02:11:53.973Z,15.30
2018-05-23T02:14:21.510Z,15.30
2018-05-23T02:16:49.811Z,15.30
2018-05-23T02:19:17.378Z,15.30
2018-05-23T02:21:44.937Z,15.30
2018-05-23T02:24:12.467Z,15.30
2018-05-23T02:26:40.867Z,15.20
2018-05-23T02:29:08.458Z,15.20
2018-05-23T02:31:35.974Z,15.20
2018-05-23T02:34:03.516Z,15.20
2018-05-23T02:36:31.800Z,15.30
2018-05-23T02:39:00.081Z,15.30
2018-05-23T02:41:27.637Z,15.20
2018-05-23T02:43:55.261Z,15.30
2018-05-23T02:46:22.796Z,15.30
2018-05-23T02:48:50.355Z,15.30
2018-05-23T02:51:17.885Z,15.30
2018-05-23T02:53:45.435Z,15.30
2018-05-23T02:56:12.989Z,15.30
2018-05-23T02:58:40.520Z,15.20
2018-05-23T03:01:08.037Z,15.20
2018-05-23T03:03:35.593Z,15.10
2018-05-23T03:06:03.120Z,15.10
2018-05-23T03:08:30.897Z,15.20
2018-05-23T03:10:58.439Z,15.00
2018-05-23T03:13:26.735Z,15.10
2018-05-23T03:15:54.263Z,15.10
2018-05-23T03:18:22.583Z,15.10
2018-05-23T03:20:50.105Z,15.00
2018-05-23T03:23:18.412Z,14.90
2018-05-23T03:25:45.972Z,14.90
2018-05-23T03:28:13.493Z,14.90
2018-05-23T03:30:42.245Z,15.10
2018-05-23T03:33:09.797Z,15.00
2018-05-23T03:35:37.339Z,15.10
2018-05-23T03:38:04.903Z,15.10
2018-05-23T03:40:32.450Z,15.00
2018-05-23T03:42:59.992Z,15.00
2018-05-23T03:45:27.509Z,15.00
2018-05-23T03:47:56.582Z,15.00
2018-05-23T03:50:24.231Z,15.00
2018-05-23T03:52:51.791Z,15.10
2018-05-23T03:55:19.332Z,15.10
2018-05-23T03:57:46.916Z,15.10
2018-05-23T04:00:26.335Z,15.00
2018-05-23T04:03:05.692Z,15.00
2018-05-23T04:05:45.315Z,15.00
2018-05-23T04:08:13.660Z,14.90
2018-05-23T04:10:41.972Z,14.90
2018-05-23T04:13:09.525Z,14.90
2018-05-23T04:15:37.061Z,14.90
2018-05-23T04:18:04.663Z,15.00
2018-05-23T04:20:32.221Z,14.90
2018-05-23T04:22:59.755Z,15.00
2018-05-23T04:25:27.281Z,15.00
2018-05-23T04:27:55.614Z,15.20
2018-05-23T04:30:23.167Z,15.20
2018-05-23T04:32:50.708Z,15.20
2018-05-23T04:35:18.277Z,15.30
2018-05-23T04:37:45.827Z,15.20
2018-05-23T04:40:13.358Z,15.30
2018-05-23T04:42:40.915Z,15.30
2018-05-23T04:45:09.215Z,15.30
2018-05-23T04:47:36.730Z,15.30
2018-05-23T04:50:04.278Z,15.40
2018-05-23T04:52:31.799Z,15.40
2018-05-23T04:54:59.328Z,15.40
2018-05-23T04:57:27.740Z,15.40
2018-05-23T04:59:55.560Z,15.40
2018-05-23T05:02:23.868Z,15.40
2018-05-23T05:04:51.434Z,15.40
2018-05-23T05:07:18.975Z,15.50
2018-05-23T05:09:46.511Z,15.40
2018-05-23T05:12:14.852Z,15.50
2018-05-23T05:14:43.234Z,15.40
2018-05-23T05:17:10.784Z,15.50
2018-05-23T05:19:38.320Z,15.60
2018-05-23T05:22:05.862Z,15.60
2018-05-23T05:24:33.389Z,15.60
2018-05-23T05:27:00.932Z,15.60
2018-05-23T05:29:28.453Z,15.80
2018-05-23T05:31:55.983Z,15.70
2018-05-23T05:34:24.411Z,16.00
2018-05-23T05:36:51.945Z,15.90
2018-05-23T05:39:19.474Z,16.10
2018-05-23T05:41:47.871Z,16.10
2018-05-23T05:44:15.448Z,16.10
2018-05-23T05:46:42.965Z,16.20
2018-05-23T05:49:11.285Z,16.30
2018-05-23T05:51:39.164Z,16.30
2018-05-23T05:54:06.715Z,16.40
2018-05-23T05:56:34.345Z,16.40
2018-05-23T05:59:01.861Z,16.60
2018-05-23T06:01:29.506Z,16.60
2018-05-23T06:03:57.148Z,16.70
2018-05-23T06:06:24.683Z,16.80
2018-05-23T06:08:52.205Z,16.80
2018-05-23T06:11:19.828Z,16.90
2018-05-23T06:13:47.379Z,17.00
2018-05-23T06:16:14.904Z,17.00
2018-05-23T06:18:42.505Z,17.00
2018-05-23T06:21:10.040Z,17.00
2018-05-23T06:23:37.585Z,17.10
2018-05-23T06:26:05.185Z,17.10
2018-05-23T06:28:32.745Z,17.30
2018-05-23T06:31:00.296Z,17.40
2018-05-23T06:33:27.962Z,17.50
2018-05-23T06:35:55.509Z,17.70
2018-05-23T06:38:23.081Z,17.90
2018-05-23T06:40:50.729Z,18.10
2018-05-23T06:43:18.270Z,18.20
2018-05-23T06:45:45.817Z,18.30
2018-05-23T06:48:13.408Z,18.30
2018-05-23T06:50:40.958Z,18.40
2018-05-23T06:53:08.465Z,18.50
2018-05-23T06:55:36.045Z,18.80
2018-05-23T06:58:03.599Z,19.00
2018-05-23T07:00:31.891Z,19.20
2018-05-23T07:02:59.480Z,19.20
2018-05-23T07:05:27.005Z,19.30
2018-05-23T07:07:54.595Z,19.30
2018-05-23T07:10:22.137Z,19.40
2018-05-23T07:12:49.705Z,19.50
2018-05-23T07:15:17.221Z,19.60
2018-05-23T07:17:45.563Z,19.70
2018-05-23T07:20:13.112Z,19.70
2018-05-23T07:22:40.642Z,19.80
2018-05-23T07:25:08.503Z,20.00
2018-05-23T07:27:36.017Z,19.80
2018-05-23T07:30:03.541Z,20.10
2018-05-23T07:32:31.097Z,20.20
2018-05-23T07:34:58.613Z,20.00
2018-05-23T07:37:26.933Z,20.50
2018-05-23T07:39:54.494Z,20.50
2018-05-23T07:42:22.079Z,20.40
2018-05-23T07:44:49.616Z,20.60
2018-05-23T07:47:17.175Z,20.70
2018-05-23T07:49:44.740Z,21.00
2018-05-23T07:52:12.274Z,21.30
2018-05-23T07:54:39.841Z,21.30
2018-05-23T07:57:07.353Z,21.60
2018-05-23T07:59:35.612Z,21.60
2018-05-23T08:02:03.681Z,21.60
2018-05-23T08:04:31.308Z,21.80
2018-05-23T08:06:58.834Z,21.90
2018-05-23T08:09:27.136Z,21.80
2018-05-23T08:11:54.670Z,21.80
2018-05-23T08:14:22.991Z,21.60
2018-05-23T08:16:50.546Z,21.50
2018-05-23T08:19:18.077Z,21.50
2018-05-23T08:21:45.920Z,21.50
2018-05-23T08:24:14.258Z,21.50
2018-05-23T08:26:42.096Z,21.40
2018-05-23T08:29:09.654Z,21.50
2018-05-23T08:31:37.228Z,21.40
2018-05-23T08:34:04.786Z,21.50
2018-05-23T08:36:32.449Z,21.40
2018-05-23T08:38:59.941Z,21.40
2018-05-23T08:41:27.462Z,21.50
2018-05-23T08:43:54.996Z,21.50
2018-05-23T08:46:22.547Z,21.40
2018-05-23T08:48:50.121Z,21.50
2018-05-23T08:51:17.700Z,21.50
2018-05-23T08:53:45.259Z,21.40
2018-05-23T08:56:12.833Z,21.50
2018-05-23T08:58:40.462Z,21.60
2018-05-23T09:01:08.039Z,21.80
2018-05-23T09:03:35.572Z,21.90
2018-05-23T09:06:03.142Z,22.10
2018-05-23T09:08:31.684Z,22.50
2018-05-23T09:10:59.984Z,23.00
2018-05-23T09:13:27.571Z,22.90
2018-05-23T09:15:55.123Z,23.10
2018-05-23T09:18:22.633Z,23.50
2018-05-23T09:20:50.945Z,23.80
2018-05-23T09:23:18.522Z,23.80
2018-05-23T09:25:46.053Z,24.00
2018-05-23T09:28:13.629Z,24.10
2018-05-23T09:30:41.192Z,24.30
2018-05-23T09:33:08.765Z,24.60
2018-05-23T09:35:36.321Z,24.90
2018-05-23T09:38:03.880Z,25.10
2018-05-23T09:40:31.430Z,25.40
2018-05-23T09:42:58.951Z,25.70
2018-05-23T09:45:27.282Z,26.00
2018-05-23T09:47:54.823Z,25.90
2018-05-23T09:50:22.959Z,25.80
2018-05-23T09:52:51.369Z,26.60
2018-05-23T09:55:18.938Z,26.50
2018-05-23T09:57:46.464Z,26.60
2018-05-23T10:00:14.027Z,26.60
2018-05-23T10:02:41.559Z,26.60
2018-05-23T10:05:09.882Z,26.50
2018-05-23T10:07:37.475Z,26.50
2018-05-23T10:10:04.991Z,26.40
2018-05-23T10:12:32.521Z,26.10
2018-05-23T10:15:00.844Z,26.60
2018-05-23T10:17:28.400Z,26.50
2018-05-23T10:19:55.914Z,26.80
2018-05-23T10:22:25.039Z,26.80
2018-05-23T10:24:52.572Z,26.70
2018-05-23T10:27:20.104Z,26.80
2018-05-23T10:29:47.656Z,26.90
2018-05-23T10:32:15.187Z,26.90
2018-05-23T10:34:42.742Z,26.70
2018-05-23T10:37:10.407Z,26.40
2018-05-23T10:39:37.943Z,26.60
2018-05-23T10:42:05.508Z,26.70
2018-05-23T10:44:33.067Z,26.70
2018-05-23T10:47:00.586Z,26.80
2018-05-23T10:49:28.883Z,26.90
2018-05-23T10:51:56.627Z,26.90
2018-05-23T10:54:25.021Z,26.80
2018-05-23T10:56:53.448Z,26.90
2018-05-23T10:59:21.020Z,26.90
2018-05-23T11:01:48.657Z,26.90
2018-05-23T11:04:16.172Z,27.00
2018-05-23T11:06:44.595Z,27.10
2018-05-23T11:09:12.151Z,27.10
2018-05-23T11:11:39.698Z,27.00
2018-05-23T11:14:07.240Z,27.20
2018-05-23T11:16:34.763Z,27.60
2018-05-23T11:19:02.282Z,27.70
2018-05-23T11:21:29.848Z,27.40
2018-05-23T11:23:57.387Z,27.40
2018-05-23T11:26:24.925Z,27.10
2018-05-23T11:28:52.528Z,27.20
2018-05-23T11:31:20.066Z,27.10
2018-05-23T11:33:47.643Z,27.10
2018-05-23T11:36:15.224Z,27.20
2018-05-23T11:38:42.732Z,27.30
2018-05-23T11:41:10.308Z,27.10
2018-05-23T11:43:37.888Z,27.10
2018-05-23T11:46:05.422Z,27.20
2018-05-23T11:48:33.002Z,27.30
2018-05-23T11:51:00.664Z,27.70
2018-05-23T11:53:28.211Z,27.90
2018-05-23T11:55:55.750Z,28.00
2018-05-23T11:58:23.332Z,28.30
2018-05-23T12:00:50.871Z,28.30
2018-05-23T12:03:18.437Z,28.20
2018-05-23T12:05:45.993Z,28.10
2018-05-23T12:08:13.532Z,28.00
2018-05-23T12:10:41.159Z,28.00
2018-05-23T12:13:08.678Z,28.10
2018-05-23T12:15:36.198Z,28.10
2018-05-23T12:18:04.497Z,28.20
2018-05-23T12:20:32.070Z,28.10
2018-05-23T12:22:59.699Z,28.30
2018-05-23T12:25:27.178Z,28.30
2018-05-23T12:27:54.739Z,28.40
2018-05-23T12:30:22.300Z,29.20
2018-05-23T12:32:49.957Z,30.10
2018-05-23T12:35:17.518Z,30.30
2018-05-23T12:37:45.065Z,30.50
2018-05-23T12:40:12.593Z,30.70
2018-05-23T12:42:40.910Z,31.20
2018-05-23T12:45:08.452Z,31.10
2018-05-23T12:47:35.962Z,31.60
2018-05-23T12:50:05.028Z,31.50
2018-05-23T12:52:32.540Z,31.50
2018-05-23T12:55:00.821Z,32.10
2018-05-23T12:57:29.163Z,31.40
2018-05-23T12:59:56.694Z,31.40
2018-05-23T13:02:24.214Z,31.30
2018-05-23T13:04:52.530Z,32.20
2018-05-23T13:07:20.090Z,32.20
2018-05-23T13:09:47.625Z,33.20
2018-05-23T13:12:15.199Z,33.40
2018-05-23T13:14:42.757Z,33.70
2018-05-23T13:17:10.269Z,33.70
2018-05-23T13:19:39.712Z,33.30
2018-05-23T13:22:07.252Z,33.30
2018-05-23T13:24:34.835Z,33.60
2018-05-23T13:27:02.532Z,33.30
2018-05-23T13:29:30.160Z,33.40
2018-05-23T13:31:58.551Z,32.90
2018-05-23T13:34:26.215Z,33.10
2018-05-23T13:36:53.757Z,33.40
2018-05-23T13:39:21.286Z,33.30
2018-05-23T13:41:49.590Z,33.50
2018-05-23T13:44:17.264Z,33.50
2018-05-23T13:46:44.844Z,34.50
2018-05-23T13:49:12.393Z,35.10
2018-05-23T13:51:39.925Z,35.10
2018-05-23T13:54:07.459Z,34.50
2018-05-23T13:56:35.147Z,34.90
2018-05-23T13:59:02.679Z,35.30
2018-05-23T14:01:30.266Z,35.80
2018-05-23T14:03:57.818Z,35.70
2018-05-23T14:06:25.393Z,35.70
2018-05-23T14:08:52.937Z,35.70
2018-05-23T14:11:20.497Z,35.20
2018-05-23T14:13:48.024Z,35.10
2018-05-23T14:16:16.337Z,35.10
2018-05-23T14:18:43.899Z,35.00
2018-05-23T14:21:11.459Z,35.40
2018-05-23T14:23:39.007Z,36.10
2018-05-23T14:26:06.636Z,36.30
2018-05-23T14:28:34.948Z,37.30
2018-05-23T14:31:02.484Z,37.30
2018-05-23T14:33:30.061Z,36.20
2018-05-23T14:35:57.591Z,36.10
2018-05-23T14:38:25.186Z,36.00
2018-05-23T14:40:52.843Z,36.50
2018-05-23T14:43:20.419Z,36.70
2018-05-23T14:45:47.912Z,37.00
2018-05-23T14:48:15.481Z,35.90
2018-05-23T14:50:43.795Z,36.00
2018-05-23T14:53:12.122Z,35.90
2018-05-23T14:55:39.667Z,35.80
2018-05-23T14:58:07.192Z,36.10
2018-05-23T15:00:34.752Z,36.10
2018-05-23T15:03:02.684Z,36.60
2018-05-23T15:05:30.227Z,36.40
2018-05-23T15:07:58.513Z,36.50
2018-05-23T15:10:26.824Z,36.40
2018-05-23T15:12:54.342Z,36.30
2018-05-23T15:15:22.672Z,36.50
2018-05-23T15:17:50.222Z,36.50
2018-05-23T15:20:17.876Z,35.60
2018-05-23T15:22:45.393Z,34.90
2018-05-23T15:25:12.982Z,33.90
2018-05-23T15:27:40.518Z,33.70
2018-05-23T15:30:08.846Z,34.60
2018-05-23T15:32:36.420Z,34.60
2018-05-23T15:35:04.021Z,34.60
2018-05-23T15:37:31.624Z,34.10
2018-05-23T15:39:59.180Z,33.40
2018-05-23T15:42:26.735Z,33.20
2018-05-23T15:44:54.301Z,32.30
2018-05-23T15:47:21.842Z,31.70
2018-05-23T15:49:49.404Z,31.30
2018-05-23T15:52:16.924Z,30.60
2018-05-23T15:54:45.353Z,30.60
2018-05-23T15:57:12.934Z,30.50
2018-05-23T15:59:40.560Z,30.20
2018-05-23T16:02:08.076Z,30.10
2018-05-23T16:04:36.535Z,30.90
2018-05-23T16:07:04.160Z,30.80
2018-05-23T16:09:31.693Z,31.60
2018-05-23T16:11:59.270Z,32.20
2018-05-23T16:14:26.792Z,32.70
2018-05-23T16:16:55.081Z,32.90
2018-05-23T16:19:23.493Z,33.10
2018-05-23T16:21:51.053Z,33.00
2018-05-23T16:24:18.594Z,33.40
2018-05-23T16:26:46.181Z,33.80
2018-05-23T16:29:13.697Z,34.30
2018-05-23T16:31:41.232Z,34.60
2018-05-23T16:34:09.551Z,35.10
2018-05-23T16:36:37.068Z,35.00
2018-05-23T16:39:05.381Z,34.20
2018-05-23T16:41:32.938Z,34.20
2018-05-23T16:44:00.501Z,33.90
2018-05-23T16:46:28.266Z,34.70
2018-05-23T16:48:55.837Z,35.40
2018-05-23T16:51:23.358Z,35.60
2018-05-23T16:53:51.652Z,36.00
2018-05-23T16:56:19.212Z,35.90
2018-05-23T16:58:46.743Z,36.20
2018-05-23T17:01:15.946Z,35.50
2018-05-23T17:03:44.304Z,35.40
2018-05-23T17:06:11.838Z,35.40
2018-05-23T17:08:39.396Z,35.60
2018-05-23T17:11:07.352Z,35.60
2018-05-23T17:13:34.873Z,35.40
2018-05-23T17:16:03.153Z,34.30
2018-05-23T17:18:30.728Z,34.30
2018-05-23T17:20:58.307Z,34.20
2018-05-23T17:23:25.848Z,33.90
2018-05-23T17:25:53.511Z,33.90
2018-05-23T17:28:21.048Z,34.20
2018-05-23T17:30:49.423Z,34.20
2018-05-23T17:33:17.003Z,34.20
2018-05-23T17:35:44.541Z,34.20
2018-05-23T17:38:12.851Z,34.30
2018-05-23T17:40:40.706Z,34.20
2018-05-23T17:43:08.248Z,34.10
2018-05-23T17:45:35.789Z,33.80
2018-05-23T17:48:04.114Z,34.50
2018-05-23T17:50:31.729Z,34.40
2018-05-23T17:53:00.025Z,34.30
2018-05-23T17:55:27.595Z,34.20
2018-05-23T17:57:55.256Z,33.70
2018-05-23T18:00:22.791Z,33.50
2018-05-23T18:02:51.143Z,33.50
2018-05-23T18:05:21.275Z,33.50
2018-05-23T18:07:48.856Z,33.10
2018-05-23T18:10:16.431Z,32.90
2018-05-23T18:12:43.956Z,32.10
2018-05-23T18:15:12.263Z,29.50
2018-05-23T18:17:39.843Z,29.40
2018-05-23T18:20:07.702Z,29.00
2018-05-23T18:22:35.252Z,28.40
2018-05-23T18:25:05.332Z,27.90
2018-05-23T18:27:33.072Z,27.70
2018-05-23T18:30:00.594Z,27.90
2018-05-23T18:32:28.143Z,27.90
2018-05-23T18:34:55.662Z,28.10
2018-05-23T18:37:23.977Z,28.30
2018-05-23T18:39:51.547Z,28.30
2018-05-23T18:42:19.059Z,28.20
2018-05-23T18:44:46.670Z,27.80
2018-05-23T18:47:14.245Z,27.50
2018-05-23T18:49:41.889Z,27.50
2018-05-23T18:52:09.453Z,27.50
2018-05-23T18:54:37.026Z,27.30
2018-05-23T18:57:04.643Z,27.10
2018-05-23T18:59:32.895Z,25.90
2018-05-23T19:02:01.321Z,25.30
2018-05-23T19:04:28.773Z,25.20
2018-05-23T19:06:56.291Z,24.80
2018-05-23T19:09:24.597Z,24.10
2018-05-23T19:11:52.119Z,24.00
2018-05-23T19:14:20.406Z,23.50
2018-05-23T19:16:48.709Z,23.30
2018-05-23T19:19:16.235Z,23.20
2018-05-23T19:21:44.535Z,22.90
2018-05-23T19:24:12.135Z,22.80
2018-05-23T19:26:39.686Z,22.50
2018-05-23T19:29:07.255Z,22.30
2018-05-23T19:31:34.887Z,22.00
2018-05-23T19:34:02.440Z,21.70
2018-05-23T19:36:29.996Z,21.40
2018-05-23T19:38:57.594Z,21.20
2018-05-23T19:41:25.967Z,20.90
2018-05-23T19:43:53.537Z,20.80
2018-05-23T19:46:22.117Z,20.60
2018-05-23T19:48:49.702Z,20.50
2018-05-23T19:51:18.235Z,20.10
2018-05-23T19:53:45.906Z,20.10
2018-05-23T19:56:13.804Z,20.00
2018-05-23T19:58:42.200Z,19.80
2018-05-23T20:01:10.533Z,19.70
2018-05-23T20:03:38.100Z,19.60
2018-05-23T20:06:05.638Z,19.50
2018-05-23T20:08:33.206Z,19.50
2018-05-23T20:11:00.729Z,19.60
2018-05-23T20:13:28.310Z,19.50
2018-05-23T20:15:55.980Z,19.40
2018-05-23T20:18:23.512Z,19.30
2018-05-23T20:20:51.060Z,19.10
2018-05-23T20:23:18.634Z,18.90
2018-05-23T20:25:46.173Z,18.70
2018-05-23T20:28:13.698Z,18.60
2018-05-23T20:30:41.256Z,18.50
2018-05-23T20:33:09.179Z,18.40
2018-05-23T20:35:36.698Z,18.30
2018-05-23T20:38:05.148Z,18.20
2018-05-23T20:40:32.687Z,18.10
2018-05-23T20:43:00.238Z,18.00
2018-05-23T20:45:27.791Z,17.80
2018-05-23T20:47:55.353Z,17.70
2018-05-23T20:50:22.917Z,17.90
2018-05-23T20:52:50.482Z,17.80
2018-05-23T20:55:18.050Z,17.70
2018-05-23T20:57:45.583Z,17.60
2018-05-23T21:00:13.128Z,17.60
2018-05-23T21:02:40.725Z,17.50
2018-05-23T21:05:08.316Z,17.50
2018-05-23T21:07:35.927Z,17.50
2018-05-23T21:10:03.497Z,17.50
2018-05-23T21:12:31.013Z,17.50
2018-05-23T21:14:59.427Z,17.50
2018-05-23T21:17:26.954Z,17.40
2018-05-23T21:19:54.531Z,17.40
2018-05-23T21:22:22.069Z,17.30
2018-05-23T21:24:50.379Z,17.00
2018-05-23T21:27:17.903Z,17.00
2018-05-23T21:29:46.314Z,16.90
2018-05-23T21:32:15.420Z,16.80
2018-05-23T21:34:42.962Z,16.80
2018-05-23T21:37:10.533Z,16.80
2018-05-23T21:39:38.060Z,16.90
2018-05-23T21:42:05.595Z,17.10
2018-05-23T21:44:33.917Z,17.30
2018-05-23T21:47:01.438Z,17.20
2018-05-23T21:49:29.761Z,17.80
2018-05-23T21:51:57.326Z,17.70
2018-05-23T21:54:24.881Z,17.80
2018-05-23T21:56:52.440Z,17.80
2018-05-23T21:59:19.993Z,17.70
2018-05-23T22:01:47.517Z,17.60
2018-05-23T22:04:15.044Z,17.50
2018-05-23T22:06:42.610Z,17.50
2018-05-23T22:09:10.140Z,17.50
2018-05-23T22:11:37.819Z,17.60
2018-05-23T22:14:05.434Z,17.70
2018-05-23T22:16:32.992Z,17.60
2018-05-23T22:19:00.550Z,17.60
2018-05-23T22:21:28.097Z,17.50
2018-05-23T22:23:55.638Z,17.30
2018-05-23T22:26:23.914Z,17.10
2018-05-23T22:28:52.246Z,17.00
2018-05-23T22:31:19.777Z,16.90
2018-05-23T22:33:47.302Z,17.00
2018-05-23T22:36:15.724Z,17.00
2018-05-23T22:38:43.491Z,16.90
2018-05-23T22:41:10.997Z,17.00
2018-05-23T22:43:39.443Z,17.20
2018-05-23T22:46:06.981Z,17.20
2018-05-23T22:48:34.500Z,17.20
2018-05-23T22:51:02.838Z,17.20
2018-05-23T22:53:30.371Z,17.10
2018-05-23T22:55:58.028Z,17.10
2018-05-23T22:58:25.585Z,17.00
2018-05-23T23:00:53.103Z,17.10
2018-05-23T23:03:20.614Z,17.20
2018-05-23T23:05:48.274Z,17.20
2018-05-23T23:08:15.781Z,17.20
2018-05-23T23:10:43.393Z,17.10
2018-05-23T23:13:10.947Z,17.00
2018-05-23T23:15:38.475Z,17.00
2018-05-23T23:18:05.993Z,16.90
2018-05-23T23:20:33.538Z,16.90
2018-05-23T23:23:01.050Z,16.70
2018-05-23T23:25:29.321Z,16.60
2018-05-23T23:27:57.647Z,16.70
2018-05-23T23:30:25.593Z,16.70
2018-05-23T23:32:53.117Z,16.70
2018-05-23T23:35:21.940Z,16.70
2018-05-23T23:37:49.511Z,16.70
2018-05-23T23:40:17.022Z,16.60
2018-05-23T23:42:45.432Z,16.50
2018-05-23T23:45:12.960Z,16.40
2018-05-23T23:47:41.257Z,16.40
2018-05-23T23:50:08.804Z,16.40
2018-05-23T23:52:36.321Z,16.40
2018-05-23T23:55:03.842Z,16.30
2018-05-23T23:57:31.415Z,16.40
2018-05-23T23:59:58.957Z,16.40
